createdAt,value
2018-05-18T00:00:56.278Z,14.90
2018-05-18T00:03:24.185Z,17.52
2018-05-18T00:05:52.143Z,22.58
2018-05-18T00:08:20.065Z,17.83
2018-05-18T00:10:49.970Z,10.20
2018-05-18T00:13:18.636Z,20.10
2018-05-18T00:15:46.598Z,21.65
2018-05-18T00:18:14.531Z,14.15
2018-05-18T00:20:42.498Z,10.50
2018-05-18T00:23:10.404Z,16.15
2018-05-18T00:25:38.375Z,17.62
2018-05-18T00:28:06.285Z,12.98
2018-05-18T00:30:35.026Z,12.30
2018-05-18T00:33:02.937Z,21.30
2018-05-18T00:35:31.663Z,16.48
2018-05-18T00:37:59.570Z,13.68
2018-05-18T00:40:27.534Z,15.02
2018-05-18T00:42:55.558Z,15.45
2018-05-18T00:45:23.543Z,16.45
2018-05-18T00:47:51.444Z,26.95
2018-05-18T00:50:19.413Z,18.87
2018-05-18T00:52:47.319Z,15.05
2018-05-18T00:55:27.802Z,16.90
2018-05-18T00:57:57.696Z,16.08
2018-05-18T01:00:26.421Z,17.05
2018-05-18T01:02:54.334Z,11.43
2018-05-18T01:05:22.307Z,20.55
2018-05-18T01:07:50.217Z,14.05
2018-05-18T01:10:18.113Z,18.00
2018-05-18T01:12:46.085Z,12.60
2018-05-18T01:15:13.997Z,13.95
2018-05-18T01:17:42.762Z,15.75
2018-05-18T01:20:10.700Z,18.52
2018-05-18T01:22:38.668Z,18.50
2018-05-18T01:25:06.625Z,18.83
2018-05-18T01:27:34.585Z,18.67
2018-05-18T01:30:02.517Z,19.67
2018-05-18T01:32:30.488Z,16.95
2018-05-18T01:34:58.414Z,18.12
2018-05-18T01:37:26.397Z,13.35
2018-05-18T01:39:54.305Z,22.60
2018-05-18T01:42:22.283Z,19.87
2018-05-18T01:44:50.960Z,21.40
2018-05-18T01:47:18.934Z,20.75
2018-05-18T01:49:46.833Z,27.35
2018-05-18T01:52:14.789Z,18.90
2018-05-18T01:54:43.470Z,28.20
2018-05-18T01:57:12.206Z,20.08
2018-05-18T01:59:40.162Z,35.00
2018-05-18T02:02:08.117Z,23.45
2018-05-18T02:04:36.071Z,32.08
2018-05-18T02:07:04.805Z,28.42
2018-05-18T02:09:32.710Z,29.42
2018-05-18T02:12:00.678Z,29.10
2018-05-18T02:14:28.578Z,26.60
2018-05-18T02:16:56.554Z,24.40
2018-05-18T02:19:24.473Z,34.40
2018-05-18T02:21:52.382Z,32.45
2018-05-18T02:24:21.108Z,26.55
2018-05-18T02:26:49.040Z,38.47
2018-05-18T02:29:17.013Z,31.95
2018-05-18T02:31:44.930Z,34.95
2018-05-18T02:34:12.924Z,41.53
2018-05-18T02:36:40.866Z,44.92
2018-05-18T02:39:08.853Z,41.37
2018-05-18T02:41:36.800Z,37.72
2018-05-18T02:44:04.834Z,34.97
2018-05-18T02:46:32.743Z,27.90
2018-05-18T02:49:00.706Z,31.65
2018-05-18T02:51:28.623Z,25.85
2018-05-18T02:53:57.361Z,50.80
2018-05-18T02:56:25.297Z,24.48
2018-05-18T02:58:53.255Z,32.10
2018-05-18T03:01:21.959Z,26.85
2018-05-18T03:03:49.941Z,33.47
2018-05-18T03:06:17.847Z,29.67
2018-05-18T03:08:45.812Z,30.30
2018-05-18T03:11:13.725Z,25.70
2018-05-18T03:13:42.452Z,31.15
2018-05-18T03:16:10.391Z,23.12
2018-05-18T03:18:38.343Z,28.77
2018-05-18T03:21:06.256Z,31.15
2018-05-18T03:23:34.221Z,27.75
2018-05-18T03:26:02.131Z,23.90
2018-05-18T03:28:30.054Z,28.67
2018-05-18T03:30:58.018Z,27.02
2018-05-18T03:33:25.932Z,28.08
2018-05-18T03:35:53.958Z,29.23
2018-05-18T03:38:21.865Z,27.40
2018-05-18T03:40:49.910Z,37.80
2018-05-18T03:43:17.818Z,37.78
2018-05-18T03:45:45.761Z,33.17
2018-05-18T03:48:13.652Z,41.15
2018-05-18T03:50:41.634Z,44.95
2018-05-18T03:53:09.524Z,39.13
2018-05-18T03:55:38.228Z,53.63
2018-05-18T03:58:06.161Z,53.75
2018-05-18T04:00:34.106Z,43.42
2018-05-18T04:03:13.869Z,46.53
2018-05-18T04:05:53.602Z,48.60
2018-05-18T04:08:46.229Z,36.75
2018-05-18T04:11:14.167Z,48.45
2018-05-18T04:13:42.819Z,64.28
2018-05-18T04:16:14.182Z,54.33
2018-05-18T04:18:45.382Z,58.80
2018-05-18T04:21:18.450Z,73.32
2018-05-18T04:23:49.889Z,69.65
2018-05-18T04:26:21.604Z,74.43
2018-05-18T04:28:53.010Z,74.75
2018-05-18T04:31:25.325Z,78.03
2018-05-18T04:33:56.171Z,64.07
2018-05-18T04:36:28.159Z,74.50
2018-05-18T04:39:00.524Z,70.87
2018-05-18T04:41:32.124Z,79.60
2018-05-18T04:44:01.066Z,83.00
2018-05-18T04:46:29.037Z,79.93
2018-05-18T04:48:57.369Z,84.25
2018-05-18T04:51:25.325Z,89.15
2018-05-18T04:53:53.217Z,89.45
2018-05-18T04:56:25.952Z,73.03
2018-05-18T04:58:58.069Z,79.85
2018-05-18T05:01:29.446Z,82.00
2018-05-18T05:04:00.548Z,85.20
2018-05-18T05:06:32.037Z,85.70
2018-05-18T05:09:03.392Z,74.07
2018-05-18T05:11:34.402Z,73.70
2018-05-18T05:14:05.371Z,75.05
2018-05-18T05:16:37.550Z,83.22
2018-05-18T05:19:08.947Z,76.65
2018-05-18T05:21:37.855Z,77.37
2018-05-18T05:24:05.746Z,75.00
2018-05-18T05:26:33.693Z,75.20
2018-05-18T05:29:01.595Z,76.03
2018-05-18T05:31:29.563Z,78.62
2018-05-18T05:33:57.464Z,64.15
2018-05-18T05:36:26.199Z,75.53
2018-05-18T05:38:54.096Z,81.00
2018-05-18T05:41:22.065Z,86.72
2018-05-18T05:43:50.027Z,86.25
2018-05-18T05:46:17.988Z,91.93
2018-05-18T05:48:45.876Z,89.93
2018-05-18T05:51:13.821Z,95.87
2018-05-18T05:53:41.724Z,89.07
2018-05-18T05:56:09.673Z,97.12
2018-05-18T05:58:37.565Z,88.28
2018-05-18T06:01:05.548Z,89.28
2018-05-18T06:03:34.220Z,101.97
2018-05-18T06:06:02.208Z,89.45
2018-05-18T06:08:30.897Z,84.97
2018-05-18T06:10:59.637Z,90.68
2018-05-18T06:13:27.613Z,112.07
2018-05-18T06:15:55.568Z,105.03
2018-05-18T06:18:23.520Z,107.45
2018-05-18T06:20:51.487Z,98.75
2018-05-18T06:23:19.393Z,114.85
2018-05-18T06:25:47.351Z,109.25
2018-05-18T06:28:15.254Z,104.32
2018-05-18T06:30:43.213Z,103.47
2018-05-18T06:33:11.100Z,111.00
2018-05-18T06:35:39.091Z,99.05
2018-05-18T06:38:07.781Z,104.10
2018-05-18T06:40:35.745Z,105.00
2018-05-18T06:43:04.461Z,102.62
2018-05-18T06:45:32.409Z,98.10
2018-05-18T06:48:00.305Z,100.07
2018-05-18T06:50:28.253Z,93.05
2018-05-18T06:52:56.139Z,99.10
2018-05-18T06:55:24.077Z,96.43
2018-05-18T06:58:00.042Z,100.30
2018-05-18T07:00:28.007Z,102.40
2018-05-18T07:02:55.919Z,94.62
2018-05-18T07:05:23.886Z,101.93
2018-05-18T07:07:51.781Z,102.72
2018-05-18T07:10:19.729Z,92.12
2018-05-18T07:12:47.652Z,100.18
2018-05-18T07:15:16.388Z,89.07
2018-05-18T07:17:44.293Z,96.03
2018-05-18T07:20:13.014Z,99.53
2018-05-18T07:22:40.995Z,96.22
2018-05-18T07:25:08.973Z,98.47
2018-05-18T07:27:36.883Z,99.82
2018-05-18T07:30:04.829Z,97.22
2018-05-18T07:32:32.788Z,99.40
2018-05-18T07:35:00.692Z,95.05
2018-05-18T07:37:28.641Z,92.22
2018-05-18T07:39:56.534Z,89.28
2018-05-18T07:42:24.484Z,95.35
2018-05-18T07:44:52.381Z,97.62
2018-05-18T07:47:21.102Z,94.75
2018-05-18T07:49:48.990Z,87.10
2018-05-18T07:52:16.951Z,92.45
2018-05-18T07:54:44.863Z,86.80
2018-05-18T07:57:12.828Z,84.75
2018-05-18T07:59:40.744Z,89.72
2018-05-18T08:02:08.703Z,80.75
2018-05-18T08:04:36.595Z,88.32
2018-05-18T08:07:04.536Z,81.22
2018-05-18T08:09:33.214Z,82.53
2018-05-18T08:12:01.944Z,85.80
2018-05-18T08:14:29.836Z,92.10
2018-05-18T08:16:57.794Z,92.70
2018-05-18T08:19:25.700Z,80.50
2018-05-18T08:21:53.642Z,78.65
2018-05-18T08:24:21.543Z,87.75
2018-05-18T08:27:02.073Z,78.43
2018-05-18T08:29:38.652Z,88.65
2018-05-18T08:32:06.618Z,87.22
2018-05-18T08:34:34.511Z,80.47
2018-05-18T08:37:02.450Z,77.43
2018-05-18T08:39:30.405Z,73.62
2018-05-18T08:41:58.367Z,75.20
2018-05-18T08:44:26.274Z,80.68
2018-05-18T08:46:55.070Z,78.28
2018-05-18T08:49:22.972Z,76.32
2018-05-18T08:51:50.923Z,77.25
2018-05-18T08:54:19.611Z,77.75
2018-05-18T08:56:48.324Z,70.10
2018-05-18T08:59:16.217Z,83.15
2018-05-18T09:01:44.163Z,85.95
2018-05-18T09:04:12.070Z,71.55
2018-05-18T09:06:40.040Z,81.68
2018-05-18T09:09:07.954Z,76.12
2018-05-18T09:11:36.694Z,65.75
2018-05-18T09:14:04.653Z,71.32
2018-05-18T09:16:35.440Z,72.07
2018-05-18T09:19:03.579Z,71.40
2018-05-18T09:21:31.547Z,70.00
2018-05-18T09:23:59.496Z,69.60
2018-05-18T09:26:30.547Z,71.27
2018-05-18T09:28:59.302Z,80.00
2018-05-18T09:31:27.974Z,80.73
2018-05-18T09:33:57.486Z,77.70
2018-05-18T09:36:25.415Z,77.23
2018-05-18T09:38:53.389Z,85.80
2018-05-18T09:41:23.849Z,86.83
2018-05-18T09:43:51.894Z,79.53
2018-05-18T09:46:19.979Z,74.80
2018-05-18T09:48:50.620Z,83.23
2018-05-18T09:51:18.515Z,85.20
2018-05-18T09:53:47.235Z,86.47
2018-05-18T09:56:15.137Z,80.80
2018-05-18T09:58:43.102Z,82.27
2018-05-18T10:01:11.011Z,70.03
2018-05-18T10:03:38.963Z,71.37
2018-05-18T10:06:07.643Z,68.13
2018-05-18T10:08:38.420Z,72.73
2018-05-18T10:11:06.454Z,65.87
2018-05-18T10:13:34.428Z,65.43
2018-05-18T10:16:02.386Z,64.93
2018-05-18T10:18:30.781Z,62.20
2018-05-18T10:20:59.507Z,65.50
2018-05-18T10:23:27.392Z,58.73
2018-05-18T10:25:55.320Z,57.80
2018-05-18T10:28:26.866Z,53.87
2018-05-18T10:30:55.574Z,51.33
2018-05-18T10:33:23.484Z,61.10
2018-05-18T10:35:51.459Z,58.13
2018-05-18T10:38:19.372Z,48.37
2018-05-18T10:40:48.085Z,59.30
2018-05-18T10:43:15.986Z,45.77
2018-05-18T10:45:43.943Z,52.77
2018-05-18T10:48:11.938Z,47.30
2018-05-18T10:50:39.901Z,45.80
2018-05-18T10:53:07.950Z,47.57
2018-05-18T10:55:35.938Z,43.60
2018-05-18T10:58:03.845Z,37.80
2018-05-18T11:00:32.567Z,43.63
2018-05-18T11:03:00.479Z,43.13
2018-05-18T11:05:28.430Z,38.90
2018-05-18T11:07:56.323Z,41.63
2018-05-18T11:10:24.834Z,49.87
2018-05-18T11:12:52.788Z,41.90
2018-05-18T11:15:21.596Z,44.07
2018-05-18T11:17:49.484Z,45.33
2018-05-18T11:20:17.419Z,46.40
2018-05-18T11:22:46.531Z,54.13
2018-05-18T11:25:14.524Z,41.00
2018-05-18T11:27:43.580Z,44.50
2018-05-18T11:30:12.295Z,37.17
2018-05-18T11:32:40.197Z,38.80
2018-05-18T11:35:08.150Z,46.00
2018-05-18T11:37:36.088Z,45.13
2018-05-18T11:40:04.753Z,43.60
2018-05-18T11:42:32.702Z,37.83
2018-05-18T11:45:00.648Z,41.40
2018-05-18T11:47:29.225Z,37.90
2018-05-18T11:49:57.112Z,40.03
2018-05-18T11:52:25.067Z,43.33
2018-05-18T11:54:52.969Z,40.10
2018-05-18T11:57:20.908Z,37.27
2018-05-18T11:59:48.789Z,35.20
2018-05-18T12:02:16.756Z,36.90
2018-05-18T12:04:44.642Z,35.50
2018-05-18T12:07:12.573Z,32.30
2018-05-18T12:09:40.474Z,34.77
2018-05-18T12:12:08.433Z,34.70
2018-05-18T12:14:36.340Z,34.30
2018-05-18T12:17:05.077Z,31.70
2018-05-18T12:19:32.993Z,33.80
2018-05-18T12:22:01.788Z,32.23
2018-05-18T12:24:30.460Z,30.93
2018-05-18T12:26:59.370Z,37.60
2018-05-18T12:29:28.046Z,30.90
2018-05-18T12:31:56.024Z,38.93
2018-05-18T12:34:24.684Z,29.00
2018-05-18T12:36:52.690Z,28.47
2018-05-18T12:39:21.331Z,28.40
2018-05-18T12:41:49.220Z,30.33
2018-05-18T12:44:18.813Z,34.23
2018-05-18T12:46:46.794Z,25.07
2018-05-18T12:49:14.786Z,36.27
2018-05-18T12:51:43.439Z,33.53
2018-05-18T12:54:11.377Z,30.87
2018-05-18T12:56:39.298Z,33.57
2018-05-18T12:59:07.276Z,27.77
2018-05-18T13:01:35.169Z,32.20
2018-05-18T13:04:03.148Z,29.60
2018-05-18T13:06:31.070Z,30.43
2018-05-18T13:08:59.045Z,29.13
2018-05-18T13:11:26.943Z,34.63
2018-05-18T13:13:55.733Z,37.57
2018-05-18T13:16:24.384Z,29.80
2018-05-18T13:18:52.329Z,33.20
2018-05-18T13:21:20.251Z,31.63
2018-05-18T13:23:48.966Z,33.40
2018-05-18T13:26:16.861Z,37.33
2018-05-18T13:28:44.815Z,32.13
2018-05-18T13:31:12.716Z,28.73
2018-05-18T13:33:40.698Z,35.90
2018-05-18T13:36:08.597Z,32.03
2018-05-18T13:38:37.377Z,29.90
2018-05-18T13:41:05.338Z,30.53
2018-05-18T13:43:33.296Z,29.07
2018-05-18T13:46:01.190Z,28.87
2018-05-18T13:48:29.168Z,30.87
2018-05-18T13:50:57.865Z,33.77
2018-05-18T13:53:25.760Z,32.07
2018-05-18T13:55:54.483Z,29.60
2018-05-18T13:58:22.419Z,26.07
2018-05-18T14:00:50.375Z,28.40
2018-05-18T14:03:19.240Z,27.93
2018-05-18T14:05:47.292Z,26.87
2018-05-18T14:08:15.997Z,28.70
2018-05-18T14:10:45.224Z,27.10
2018-05-18T14:13:13.263Z,24.90
2018-05-18T14:15:42.019Z,33.63
2018-05-18T14:18:09.988Z,25.80
2018-05-18T14:20:38.431Z,35.33
2018-05-18T14:23:06.357Z,25.87
2018-05-18T14:25:34.312Z,30.73
2018-05-18T14:28:02.239Z,26.33
2018-05-18T14:30:30.301Z,31.30
2018-05-18T14:32:58.239Z,24.63
2018-05-18T14:35:26.969Z,21.30
2018-05-18T14:37:54.898Z,26.37
2018-05-18T14:40:23.670Z,21.10
2018-05-18T14:42:51.608Z,32.37
2018-05-18T14:45:19.596Z,35.17
2018-05-18T14:47:47.494Z,27.00
2018-05-18T14:50:15.458Z,25.00
2018-05-18T14:52:43.356Z,26.73
2018-05-18T14:55:12.075Z,32.10
2018-05-18T14:57:39.989Z,25.00
2018-05-18T15:00:07.913Z,23.00
2018-05-18T15:02:35.901Z,25.63
2018-05-18T15:05:04.406Z,22.70
2018-05-18T15:07:32.376Z,20.93
2018-05-18T15:10:00.309Z,22.57
2018-05-18T15:12:28.265Z,18.57
2018-05-18T15:14:56.186Z,26.37
2018-05-18T15:17:24.263Z,27.67
2018-05-18T15:19:52.181Z,24.00
2018-05-18T15:22:20.157Z,20.63
2018-05-18T15:24:48.046Z,23.93
2018-05-18T15:27:16.011Z,23.87
2018-05-18T15:29:43.906Z,16.70
2018-05-18T15:32:11.883Z,16.87
2018-05-18T15:34:39.909Z,20.67
2018-05-18T15:37:07.854Z,24.93
2018-05-18T15:39:35.739Z,23.00
2018-05-18T15:42:03.717Z,21.53
2018-05-18T15:44:31.635Z,24.50
2018-05-18T15:46:59.629Z,19.57
2018-05-18T15:49:27.606Z,16.80
2018-05-18T15:51:55.538Z,24.63
2018-05-18T15:54:23.450Z,23.13
2018-05-18T15:56:51.405Z,31.80
2018-05-18T15:59:19.316Z,23.33
2018-05-18T16:01:47.297Z,17.00
2018-05-18T16:04:15.244Z,20.87
2018-05-18T16:06:43.222Z,19.90
2018-05-18T16:09:11.144Z,20.53
2018-05-18T16:11:39.088Z,25.43
2018-05-18T16:14:07.041Z,22.13
2018-05-18T16:16:34.983Z,22.87
2018-05-18T16:19:03.153Z,23.90
2018-05-18T16:21:31.059Z,20.07
2018-05-18T16:23:59.010Z,17.10
2018-05-18T16:26:26.917Z,20.60
2018-05-18T16:28:54.909Z,21.30
2018-05-18T16:31:23.602Z,20.13
2018-05-18T16:33:52.336Z,16.43
2018-05-18T16:36:20.263Z,15.90
2018-05-18T16:38:48.213Z,24.60
2018-05-18T16:41:16.108Z,20.87
2018-05-18T16:43:44.081Z,30.43
2018-05-18T16:46:12.300Z,19.83
2018-05-18T16:48:40.269Z,20.43
2018-05-18T16:51:08.291Z,21.80
2018-05-18T16:53:36.289Z,16.37
2018-05-18T16:56:04.271Z,16.00
2018-05-18T16:58:32.244Z,17.67
2018-05-18T17:01:00.210Z,27.53
2018-05-18T17:03:28.184Z,20.73
2018-05-18T17:05:56.107Z,23.00
2018-05-18T17:08:24.070Z,21.63
2018-05-18T17:10:52.736Z,16.13
2018-05-18T17:13:20.704Z,21.43
2018-05-18T17:15:48.670Z,20.40
2018-05-18T17:18:16.638Z,16.13
2018-05-18T17:20:44.556Z,24.90
2018-05-18T17:23:13.828Z,29.57
2018-05-18T17:25:43.020Z,17.57
2018-05-18T17:28:12.020Z,20.67
2018-05-18T17:30:42.188Z,17.10
2018-05-18T17:33:11.854Z,20.03
2018-05-18T17:35:41.182Z,22.37
2018-05-18T17:38:10.768Z,16.73
2018-05-18T17:40:39.776Z,16.93
2018-05-18T17:43:07.771Z,18.50
2018-05-18T17:45:35.740Z,18.57
2018-05-18T17:48:03.657Z,16.70
2018-05-18T17:50:31.601Z,24.30
2018-05-18T17:52:59.549Z,16.83
2018-05-18T17:55:27.511Z,18.93
2018-05-18T17:57:55.419Z,17.57
2018-05-18T18:00:23.393Z,17.67
2018-05-18T18:02:51.280Z,19.77
2018-05-18T18:05:19.232Z,22.40
2018-05-18T18:07:47.216Z,23.20
2018-05-18T18:10:15.200Z,22.30
2018-05-18T18:12:43.101Z,14.83
2018-05-18T18:15:11.282Z,19.53
2018-05-18T18:17:39.176Z,13.97
2018-05-18T18:20:07.159Z,12.80
2018-05-18T18:22:35.081Z,20.13
2018-05-18T18:25:03.101Z,14.70
2018-05-18T18:27:31.017Z,14.70
2018-05-18T18:29:59.007Z,14.33
2018-05-18T18:32:26.918Z,10.73
2018-05-18T18:34:54.870Z,19.80
2018-05-18T18:37:22.762Z,21.10
2018-05-18T18:39:50.683Z,14.60
2018-05-18T18:42:18.633Z,15.73
2018-05-18T18:44:46.560Z,12.03
2018-05-18T18:47:14.579Z,13.77
2018-05-18T18:49:42.490Z,14.83
2018-05-18T18:52:10.646Z,16.60
2018-05-18T18:54:39.252Z,15.53
2018-05-18T18:57:07.232Z,15.23
2018-05-18T18:59:35.132Z,10.97
2018-05-18T19:02:03.989Z,12.37
2018-05-18T19:04:31.905Z,10.90
2018-05-18T19:06:59.892Z,11.30
2018-05-18T19:09:27.822Z,11.87
2018-05-18T19:11:56.648Z,16.27
2018-05-18T19:14:24.577Z,14.70
2018-05-18T19:16:52.541Z,18.47
2018-05-18T19:19:21.213Z,18.07
2018-05-18T19:21:49.216Z,14.07
2018-05-18T19:24:18.006Z,12.43
2018-05-18T19:26:45.946Z,21.30
2018-05-18T19:29:13.881Z,14.55
2018-05-18T19:31:41.864Z,13.45
2018-05-18T19:34:09.769Z,13.38
2018-05-18T19:36:37.751Z,13.93
2018-05-18T19:39:07.482Z,15.65
2018-05-18T19:41:35.393Z,14.70
2018-05-18T19:44:03.367Z,23.42
2018-05-18T19:46:31.256Z,9.70
2018-05-18T19:48:59.225Z,13.85
2018-05-18T19:51:27.161Z,12.10
2018-05-18T19:53:55.533Z,9.88
2018-05-18T19:56:23.429Z,15.70
2018-05-18T19:58:51.410Z,17.50
2018-05-18T20:01:19.307Z,11.12
2018-05-18T20:03:47.263Z,10.57
2018-05-18T20:06:15.920Z,14.40
2018-05-18T20:08:43.858Z,10.27
2018-05-18T20:11:11.753Z,14.68
2018-05-18T20:13:39.700Z,12.95
2018-05-18T20:16:07.593Z,14.57
2018-05-18T20:18:35.533Z,17.10
2018-05-18T20:21:04.299Z,11.63
2018-05-18T20:23:32.465Z,11.63
2018-05-18T20:26:01.381Z,15.05
2018-05-18T20:28:29.334Z,11.73
2018-05-18T20:31:01.667Z,14.65
2018-05-18T20:33:29.741Z,9.73
2018-05-18T20:35:57.633Z,13.05
2018-05-18T20:38:30.399Z,14.43
2018-05-18T20:40:58.308Z,13.13
2018-05-18T20:43:26.963Z,14.75
2018-05-18T20:45:55.185Z,11.85
2018-05-18T20:48:23.145Z,13.15
2018-05-18T20:50:51.573Z,12.05
2018-05-18T20:53:20.198Z,19.73
2018-05-18T20:55:50.954Z,18.23
2018-05-18T20:58:20.595Z,14.20
2018-05-18T21:00:48.532Z,11.70
2018-05-18T21:03:16.421Z,13.85
2018-05-18T21:05:44.374Z,15.52
2018-05-18T21:08:12.268Z,26.67
2018-05-18T21:10:40.285Z,11.45
2018-05-18T21:13:08.941Z,15.50
2018-05-18T21:15:36.877Z,19.33
2018-05-18T21:18:04.776Z,16.15
2018-05-18T21:20:32.721Z,14.95
2018-05-18T21:23:00.630Z,12.98
2018-05-18T21:25:28.596Z,8.95
2018-05-18T21:27:56.513Z,19.12
2018-05-18T21:30:24.473Z,15.45
2018-05-18T21:32:55.088Z,12.35
2018-05-18T21:35:24.829Z,11.95
2018-05-18T21:37:52.819Z,27.42
2018-05-18T21:40:20.798Z,15.07
2018-05-18T21:42:48.692Z,11.80
2018-05-18T21:45:16.716Z,17.12
2018-05-18T21:47:47.905Z,12.18
2018-05-18T21:50:15.892Z,12.35
2018-05-18T21:52:43.777Z,14.23
2018-05-18T21:55:12.933Z,10.52
2018-05-18T21:57:40.891Z,15.70
2018-05-18T22:00:08.821Z,17.17
2018-05-18T22:02:37.534Z,10.25
2018-05-18T22:05:05.424Z,15.43
2018-05-18T22:07:33.362Z,14.75
2018-05-18T22:10:01.270Z,14.13
2018-05-18T22:12:29.247Z,10.27
2018-05-18T22:14:57.129Z,20.83
2018-05-18T22:17:25.078Z,11.95
2018-05-18T22:19:52.970Z,12.77
2018-05-18T22:22:20.897Z,19.70
2018-05-18T22:24:48.804Z,10.15
2018-05-18T22:27:16.739Z,12.37
2018-05-18T22:29:44.633Z,21.60
2018-05-18T22:32:12.841Z,11.70
2018-05-18T22:34:43.444Z,11.65
2018-05-18T22:37:11.377Z,17.98
2018-05-18T22:39:40.030Z,12.23
2018-05-18T22:42:08.745Z,11.02
2018-05-18T22:44:36.624Z,9.95
2018-05-18T22:47:04.571Z,14.07
2018-05-18T22:49:33.408Z,13.07
2018-05-18T22:52:01.497Z,11.55
2018-05-18T22:54:29.406Z,15.77
2018-05-18T22:56:57.346Z,13.35
2018-05-18T22:59:25.288Z,9.70
2018-05-18T23:01:53.220Z,12.73
2018-05-18T23:04:21.140Z,18.73
2018-05-18T23:06:49.082Z,16.73
2018-05-18T23:09:16.952Z,9.77
2018-05-18T23:11:44.840Z,11.73
2018-05-18T23:14:12.777Z,14.77
2018-05-18T23:16:40.666Z,17.77
2018-05-18T23:19:08.605Z,12.82
2018-05-18T23:21:36.518Z,12.25
2018-05-18T23:24:04.484Z,13.40
2018-05-18T23:26:32.388Z,11.55
2018-05-18T23:29:01.106Z,12.93
2018-05-18T23:31:28.997Z,9.70
2018-05-18T23:33:57.116Z,12.80
2018-05-18T23:36:25.801Z,11.05
2018-05-18T23:38:54.511Z,13.80
2018-05-18T23:41:22.392Z,10.82
2018-05-18T23:43:50.329Z,10.40
2018-05-18T23:46:19.036Z,12.63
2018-05-18T23:48:46.977Z,10.75
2018-05-18T23:51:15.636Z,13.57
2018-05-18T23:53:43.595Z,10.52
2018-05-18T23:56:11.499Z,13.65
2018-05-18T23:58:39.455Z,14.48
